sensor_id;sensor_type;location;lat;lon;timestamp;P1;durP1;ratioP1;P2;durP2;ratioP2
25409;SDS011;13339;50.840;4.346;2023-03-16T00:01:56;7.10;;;4.50;;
25409;SDS011;13339;50.840;4.346;2023-03-16T00:04:21;7.33;;;4.47;;
25409;SDS011;13339;50.840;4.346;2023-03-16T00:06:47;10.93;;;4.50;;
25409;SDS011;13339;50.840;4.346;2023-03-16T00:09:12;7.87;;;4.50;;
25409;SDS011;13339;50.840;4.346;2023-03-16T00:11:38;6.27;;;4.57;;
25409;SDS011;13339;50.840;4.346;2023-03-16T00:14:03;6.17;;;3.73;;
25409;SDS011;13339;50.840;4.346;2023-03-16T00:16:29;8.57;;;4.50;;
25409;SDS011;13339;50.840;4.346;2023-03-16T00:18:55;9.83;;;4.27;;
25409;SDS011;13339;50.840;4.346;2023-03-16T00:21:23;10.70;;;4.07;;
25409;SDS011;13339;50.840;4.346;2023-03-16T00:23:48;8.17;;;4.50;;
25409;SDS011;13339;50.840;4.346;2023-03-16T00:26:14;9.63;;;4.27;;
25409;SDS011;13339;50.840;4.346;2023-03-16T00:28:39;9.23;;;5.03;;
25409;SDS011;13339;50.840;4.346;2023-03-16T00:31:07;5.33;;;3.90;;
25409;SDS011;13339;50.840;4.346;2023-03-16T00:33:39;9.23;;;4.30;;
25409;SDS011;13339;50.840;4.346;2023-03-16T00:36:07;6.50;;;4.23;;
25409;SDS011;13339;50.840;4.346;2023-03-16T00:38:35;9.13;;;3.97;;
25409;SDS011;13339;50.840;4.346;2023-03-16T00:41:08;5.63;;;4.10;;
25409;SDS011;13339;50.840;4.346;2023-03-16T00:43:36;7.73;;;3.93;;
25409;SDS011;13339;50.840;4.346;2023-03-16T00:46:08;11.80;;;4.30;;
25409;SDS011;13339;50.840;4.346;2023-03-16T00:48:37;8.43;;;4.00;;
25409;SDS011;13339;50.840;4.346;2023-03-16T00:51:07;7.87;;;3.80;;
25409;SDS011;13339;50.840;4.346;2023-03-16T00:53:36;12.83;;;4.30;;
25409;SDS011;13339;50.840;4.346;2023-03-16T00:56:03;8.30;;;3.90;;
25409;SDS011;13339;50.840;4.346;2023-03-16T00:58:33;9.80;;;3.87;;
25409;SDS011;13339;50.840;4.346;2023-03-16T01:01:07;6.37;;;3.77;;
25409;SDS011;13339;50.840;4.346;2023-03-16T01:03:35;7.43;;;3.83;;
25409;SDS011;13339;50.840;4.346;2023-03-16T01:06:04;7.87;;;3.83;;
25409;SDS011;13339;50.840;4.346;2023-03-16T01:08:31;9.80;;;3.80;;
25409;SDS011;13339;50.840;4.346;2023-03-16T01:13:49;6.33;;;3.67;;
25409;SDS011;13339;50.840;4.346;2023-03-16T01:16:18;5.17;;;3.63;;
25409;SDS011;13339;50.840;4.346;2023-03-16T01:18:44;11.27;;;3.90;;
25409;SDS011;13339;50.840;4.346;2023-03-16T01:21:10;8.97;;;4.00;;
25409;SDS011;13339;50.840;4.346;2023-03-16T01:23:39;9.30;;;3.73;;
25409;SDS011;13339;50.840;4.346;2023-03-16T01:26:05;10.90;;;3.67;;
25409;SDS011;13339;50.840;4.346;2023-03-16T01:28:32;8.63;;;4.10;;
25409;SDS011;13339;50.840;4.346;2023-03-16T01:31:00;7.17;;;3.47;;
25409;SDS011;13339;50.840;4.346;2023-03-16T01:33:30;7.97;;;3.83;;
25409;SDS011;13339;50.840;4.346;2023-03-16T01:35:57;6.23;;;3.50;;
25409;SDS011;13339;50.840;4.346;2023-03-16T01:38:25;9.63;;;3.73;;
25409;SDS011;13339;50.840;4.346;2023-03-16T01:40:52;7.07;;;2.93;;
25409;SDS011;13339;50.840;4.346;2023-03-16T01:43:22;6.70;;;2.90;;
25409;SDS011;13339;50.840;4.346;2023-03-16T01:48:44;7.63;;;3.43;;
25409;SDS011;13339;50.840;4.346;2023-03-16T01:51:13;6.97;;;3.53;;
25409;SDS011;13339;50.840;4.346;2023-03-16T01:53:39;6.90;;;3.17;;
25409;SDS011;13339;50.840;4.346;2023-03-16T01:56:09;7.83;;;3.27;;
25409;SDS011;13339;50.840;4.346;2023-03-16T01:58:37;7.80;;;3.20;;
25409;SDS011;13339;50.840;4.346;2023-03-16T02:01:04;6.23;;;3.30;;
25409;SDS011;13339;50.840;4.346;2023-03-16T02:03:29;6.10;;;3.00;;
25409;SDS011;13339;50.840;4.346;2023-03-16T02:06:07;8.00;;;3.20;;
25409;SDS011;13339;50.840;4.346;2023-03-16T02:08:40;5.30;;;2.90;;
25409;SDS011;13339;50.840;4.346;2023-03-16T02:11:09;4.23;;;2.80;;
25409;SDS011;13339;50.840;4.346;2023-03-16T02:13:35;5.60;;;2.70;;
25409;SDS011;13339;50.840;4.346;2023-03-16T02:16:04;5.43;;;2.83;;
25409;SDS011;13339;50.840;4.346;2023-03-16T02:18:32;5.17;;;2.77;;
25409;SDS011;13339;50.840;4.346;2023-03-16T02:21:05;5.80;;;2.73;;
25409;SDS011;13339;50.840;4.346;2023-03-16T02:23:35;4.53;;;2.70;;
25409;SDS011;13339;50.840;4.346;2023-03-16T02:26:09;5.23;;;2.33;;
25409;SDS011;13339;50.840;4.346;2023-03-16T02:29:16;5.13;;;2.33;;
25409;SDS011;13339;50.840;4.346;2023-03-16T02:31:43;5.83;;;2.70;;
25409;SDS011;13339;50.840;4.346;2023-03-16T02:34:09;10.37;;;3.37;;
25409;SDS011;13339;50.840;4.346;2023-03-16T02:36:37;6.60;;;2.67;;
25409;SDS011;13339;50.840;4.346;2023-03-16T02:39:05;5.43;;;2.23;;
25409;SDS011;13339;50.840;4.346;2023-03-16T02:41:31;5.13;;;3.00;;
25409;SDS011;13339;50.840;4.346;2023-03-16T02:44:00;6.83;;;2.57;;
25409;SDS011;13339;50.840;4.346;2023-03-16T02:46:34;6.10;;;2.70;;
25409;SDS011;13339;50.840;4.346;2023-03-16T02:49:10;5.83;;;3.00;;
25409;SDS011;13339;50.840;4.346;2023-03-16T02:51:50;7.10;;;2.50;;
25409;SDS011;13339;50.840;4.346;2023-03-16T02:54:16;6.43;;;2.83;;
25409;SDS011;13339;50.840;4.346;2023-03-16T02:56:41;8.07;;;2.83;;
25409;SDS011;13339;50.840;4.346;2023-03-16T02:59:07;8.30;;;2.60;;
25409;SDS011;13339;50.840;4.346;2023-03-16T03:01:33;5.93;;;2.93;;
25409;SDS011;13339;50.840;4.346;2023-03-16T03:04:02;7.47;;;2.80;;
25409;SDS011;13339;50.840;4.346;2023-03-16T03:06:28;5.87;;;2.53;;
25409;SDS011;13339;50.840;4.346;2023-03-16T03:08:54;6.67;;;2.60;;
25409;SDS011;13339;50.840;4.346;2023-03-16T03:11:20;5.37;;;2.40;;
25409;SDS011;13339;50.840;4.346;2023-03-16T03:13:46;5.13;;;2.57;;
25409;SDS011;13339;50.840;4.346;2023-03-16T03:16:11;9.33;;;2.73;;
25409;SDS011;13339;50.840;4.346;2023-03-16T03:18:37;8.00;;;3.23;;
25409;SDS011;13339;50.840;4.346;2023-03-16T03:21:03;18.30;;;3.10;;
25409;SDS011;13339;50.840;4.346;2023-03-16T03:23:29;7.83;;;2.73;;
25409;SDS011;13339;50.840;4.346;2023-03-16T03:25:58;5.30;;;2.60;;
25409;SDS011;13339;50.840;4.346;2023-03-16T03:28:24;6.90;;;2.50;;
25409;SDS011;13339;50.840;4.346;2023-03-16T03:30:50;6.23;;;2.87;;
25409;SDS011;13339;50.840;4.346;2023-03-16T03:33:16;6.23;;;3.10;;
25409;SDS011;13339;50.840;4.346;2023-03-16T03:35:42;5.90;;;2.50;;
25409;SDS011;13339;50.840;4.346;2023-03-16T03:38:08;6.47;;;2.50;;
25409;SDS011;13339;50.840;4.346;2023-03-16T03:40:35;7.30;;;2.40;;
25409;SDS011;13339;50.840;4.346;2023-03-16T03:43:01;4.50;;;2.50;;
25409;SDS011;13339;50.840;4.346;2023-03-16T03:45:27;9.43;;;2.90;;
25409;SDS011;13339;50.840;4.346;2023-03-16T03:47:53;5.77;;;2.10;;
25409;SDS011;13339;50.840;4.346;2023-03-16T03:50:20;8.93;;;2.77;;
25409;SDS011;13339;50.840;4.346;2023-03-16T03:52:46;3.93;;;2.10;;
25409;SDS011;13339;50.840;4.346;2023-03-16T03:55:12;11.53;;;2.40;;
25409;SDS011;13339;50.840;4.346;2023-03-16T03:57:38;7.57;;;2.60;;
25409;SDS011;13339;50.840;4.346;2023-03-16T04:00:04;5.93;;;2.53;;
25409;SDS011;13339;50.840;4.346;2023-03-16T04:02:35;5.43;;;2.70;;
25409;SDS011;13339;50.840;4.346;2023-03-16T04:05:01;5.70;;;2.27;;
25409;SDS011;13339;50.840;4.346;2023-03-16T04:07:27;6.70;;;2.27;;
25409;SDS011;13339;50.840;4.346;2023-03-16T04:09:52;6.20;;;2.07;;
25409;SDS011;13339;50.840;4.346;2023-03-16T04:12:18;6.00;;;2.10;;
25409;SDS011;13339;50.840;4.346;2023-03-16T04:14:43;8.23;;;2.20;;
25409;SDS011;13339;50.840;4.346;2023-03-16T04:17:09;5.13;;;2.43;;
25409;SDS011;13339;50.840;4.346;2023-03-16T04:19:36;4.90;;;1.97;;
25409;SDS011;13339;50.840;4.346;2023-03-16T04:22:01;7.07;;;2.20;;
25409;SDS011;13339;50.840;4.346;2023-03-16T04:24:27;5.70;;;2.30;;
25409;SDS011;13339;50.840;4.346;2023-03-16T04:26:53;6.30;;;2.10;;
25409;SDS011;13339;50.840;4.346;2023-03-16T04:29:18;9.23;;;2.30;;
25409;SDS011;13339;50.840;4.346;2023-03-16T04:31:44;2.63;;;1.90;;
25409;SDS011;13339;50.840;4.346;2023-03-16T04:34:10;8.97;;;2.13;;
25409;SDS011;13339;50.840;4.346;2023-03-16T04:36:37;4.33;;;2.00;;
25409;SDS011;13339;50.840;4.346;2023-03-16T04:39:04;4.33;;;2.10;;
25409;SDS011;13339;50.840;4.346;2023-03-16T04:41:31;3.73;;;1.70;;
25409;SDS011;13339;50.840;4.346;2023-03-16T04:43:57;5.33;;;2.43;;
25409;SDS011;13339;50.840;4.346;2023-03-16T04:46:23;5.37;;;2.47;;
25409;SDS011;13339;50.840;4.346;2023-03-16T04:48:50;5.67;;;2.40;;
25409;SDS011;13339;50.840;4.346;2023-03-16T04:51:16;5.23;;;1.80;;
25409;SDS011;13339;50.840;4.346;2023-03-16T04:53:42;4.93;;;1.87;;
25409;SDS011;13339;50.840;4.346;2023-03-16T04:56:08;7.60;;;2.30;;
25409;SDS011;13339;50.840;4.346;2023-03-16T04:58:42;7.03;;;2.10;;
25409;SDS011;13339;50.840;4.346;2023-03-16T05:01:08;4.30;;;2.00;;
25409;SDS011;13339;50.840;4.346;2023-03-16T05:03:33;5.73;;;2.10;;
25409;SDS011;13339;50.840;4.346;2023-03-16T05:05:59;6.77;;;2.10;;
25409;SDS011;13339;50.840;4.346;2023-03-16T05:08:25;3.27;;;1.80;;
25409;SDS011;13339;50.840;4.346;2023-03-16T05:10:50;3.40;;;1.93;;
25409;SDS011;13339;50.840;4.346;2023-03-16T05:13:20;4.67;;;1.93;;
25409;SDS011;13339;50.840;4.346;2023-03-16T05:15:45;2.93;;;1.83;;
25409;SDS011;13339;50.840;4.346;2023-03-16T05:18:11;5.10;;;1.83;;
25409;SDS011;13339;50.840;4.346;2023-03-16T05:20:37;5.07;;;1.90;;
25409;SDS011;13339;50.840;4.346;2023-03-16T05:23:02;5.70;;;2.03;;
25409;SDS011;13339;50.840;4.346;2023-03-16T05:25:28;6.20;;;2.00;;
25409;SDS011;13339;50.840;4.346;2023-03-16T05:27:53;4.20;;;1.73;;
25409;SDS011;13339;50.840;4.346;2023-03-16T05:30:19;5.10;;;2.00;;
25409;SDS011;13339;50.840;4.346;2023-03-16T05:32:45;4.50;;;2.27;;
25409;SDS011;13339;50.840;4.346;2023-03-16T05:35:11;5.40;;;1.97;;
25409;SDS011;13339;50.840;4.346;2023-03-16T05:37:38;3.20;;;1.90;;
25409;SDS011;13339;50.840;4.346;2023-03-16T05:40:05;7.60;;;2.33;;
25409;SDS011;13339;50.840;4.346;2023-03-16T05:42:38;5.63;;;2.20;;
25409;SDS011;13339;50.840;4.346;2023-03-16T05:45:04;7.70;;;2.13;;
25409;SDS011;13339;50.840;4.346;2023-03-16T05:47:30;5.37;;;2.33;;
25409;SDS011;13339;50.840;4.346;2023-03-16T05:49:56;6.13;;;2.47;;
25409;SDS011;13339;50.840;4.346;2023-03-16T05:52:21;3.73;;;2.00;;
25409;SDS011;13339;50.840;4.346;2023-03-16T05:54:49;8.03;;;1.90;;
25409;SDS011;13339;50.840;4.346;2023-03-16T05:57:14;3.17;;;1.60;;
25409;SDS011;13339;50.840;4.346;2023-03-16T05:59:40;3.63;;;1.90;;
25409;SDS011;13339;50.840;4.346;2023-03-16T06:02:05;2.93;;;1.60;;
25409;SDS011;13339;50.840;4.346;2023-03-16T06:04:34;16.50;;;4.23;;
25409;SDS011;13339;50.840;4.346;2023-03-16T06:07:00;4.17;;;2.03;;
25409;SDS011;13339;50.840;4.346;2023-03-16T06:09:26;5.60;;;2.20;;
25409;SDS011;13339;50.840;4.346;2023-03-16T06:11:51;4.43;;;2.13;;
25409;SDS011;13339;50.840;4.346;2023-03-16T06:14:17;5.77;;;2.00;;
25409;SDS011;13339;50.840;4.346;2023-03-16T06:16:43;7.00;;;2.57;;
25409;SDS011;13339;50.840;4.346;2023-03-16T06:19:08;3.03;;;1.53;;
25409;SDS011;13339;50.840;4.346;2023-03-16T06:21:34;6.93;;;1.80;;
25409;SDS011;13339;50.840;4.346;2023-03-16T06:24:00;6.60;;;2.20;;
25409;SDS011;13339;50.840;4.346;2023-03-16T06:26:26;3.93;;;1.80;;
25409;SDS011;13339;50.840;4.346;2023-03-16T06:28:51;5.43;;;2.20;;
25409;SDS011;13339;50.840;4.346;2023-03-16T06:31:17;5.67;;;2.20;;
25409;SDS011;13339;50.840;4.346;2023-03-16T06:33:43;5.83;;;1.97;;
25409;SDS011;13339;50.840;4.346;2023-03-16T06:36:08;6.00;;;2.50;;
25409;SDS011;13339;50.840;4.346;2023-03-16T06:38:34;7.40;;;2.20;;
25409;SDS011;13339;50.840;4.346;2023-03-16T06:41:00;4.87;;;2.50;;
25409;SDS011;13339;50.840;4.346;2023-03-16T06:43:25;6.50;;;2.30;;
25409;SDS011;13339;50.840;4.346;2023-03-16T06:45:51;4.80;;;2.27;;
25409;SDS011;13339;50.840;4.346;2023-03-16T06:48:17;5.30;;;2.07;;
25409;SDS011;13339;50.840;4.346;2023-03-16T06:50:43;5.23;;;2.00;;
25409;SDS011;13339;50.840;4.346;2023-03-16T06:53:10;6.03;;;2.10;;
25409;SDS011;13339;50.840;4.346;2023-03-16T06:55:36;7.83;;;2.00;;
25409;SDS011;13339;50.840;4.346;2023-03-16T06:58:01;6.00;;;2.50;;
25409;SDS011;13339;50.840;4.346;2023-03-16T07:00:27;5.10;;;2.20;;
25409;SDS011;13339;50.840;4.346;2023-03-16T07:02:54;5.97;;;1.90;;
25409;SDS011;13339;50.840;4.346;2023-03-16T07:05:20;4.97;;;2.33;;
25409;SDS011;13339;50.840;4.346;2023-03-16T07:07:46;5.27;;;2.00;;
25409;SDS011;13339;50.840;4.346;2023-03-16T07:10:12;5.23;;;2.00;;
25409;SDS011;13339;50.840;4.346;2023-03-16T07:12:39;12.37;;;2.40;;
25409;SDS011;13339;50.840;4.346;2023-03-16T07:15:06;4.07;;;2.27;;
25409;SDS011;13339;50.840;4.346;2023-03-16T07:17:32;5.90;;;2.20;;
25409;SDS011;13339;50.840;4.346;2023-03-16T07:19:57;6.70;;;2.20;;
25409;SDS011;13339;50.840;4.346;2023-03-16T07:22:23;5.53;;;2.27;;
25409;SDS011;13339;50.840;4.346;2023-03-16T07:24:49;7.53;;;1.93;;
25409;SDS011;13339;50.840;4.346;2023-03-16T07:27:20;7.00;;;2.47;;
25409;SDS011;13339;50.840;4.346;2023-03-16T07:29:47;7.00;;;3.33;;
25409;SDS011;13339;50.840;4.346;2023-03-16T07:32:13;6.70;;;2.70;;
25409;SDS011;13339;50.840;4.346;2023-03-16T07:34:39;8.67;;;2.33;;
25409;SDS011;13339;50.840;4.346;2023-03-16T07:37:05;4.97;;;2.30;;
25409;SDS011;13339;50.840;4.346;2023-03-16T07:39:33;8.23;;;2.77;;
25409;SDS011;13339;50.840;4.346;2023-03-16T07:41:59;5.60;;;2.17;;
25409;SDS011;13339;50.840;4.346;2023-03-16T07:44:25;8.60;;;2.63;;
25409;SDS011;13339;50.840;4.346;2023-03-16T07:46:51;3.50;;;1.90;;
25409;SDS011;13339;50.840;4.346;2023-03-16T07:49:17;8.03;;;2.17;;
25409;SDS011;13339;50.840;4.346;2023-03-16T07:51:42;8.00;;;2.70;;
25409;SDS011;13339;50.840;4.346;2023-03-16T07:54:08;7.47;;;2.37;;
25409;SDS011;13339;50.840;4.346;2023-03-16T07:56:33;11.80;;;3.13;;
25409;SDS011;13339;50.840;4.346;2023-03-16T07:58:59;5.10;;;1.90;;
25409;SDS011;13339;50.840;4.346;2023-03-16T08:01:25;6.53;;;2.40;;
25409;SDS011;13339;50.840;4.346;2023-03-16T08:03:51;3.53;;;1.90;;
25409;SDS011;13339;50.840;4.346;2023-03-16T08:06:17;7.67;;;2.60;;
25409;SDS011;13339;50.840;4.346;2023-03-16T08:08:43;8.97;;;2.33;;
25409;SDS011;13339;50.840;4.346;2023-03-16T08:11:08;7.03;;;2.00;;
25409;SDS011;13339;50.840;4.346;2023-03-16T08:13:35;3.90;;;2.20;;
25409;SDS011;13339;50.840;4.346;2023-03-16T08:16:00;4.40;;;2.30;;
25409;SDS011;13339;50.840;4.346;2023-03-16T08:18:26;4.73;;;2.00;;
25409;SDS011;13339;50.840;4.346;2023-03-16T08:20:54;4.97;;;2.47;;
25409;SDS011;13339;50.840;4.346;2023-03-16T08:23:21;5.97;;;2.03;;
25409;SDS011;13339;50.840;4.346;2023-03-16T08:25:52;9.57;;;2.37;;
25409;SDS011;13339;50.840;4.346;2023-03-16T08:28:18;5.60;;;1.97;;
25409;SDS011;13339;50.840;4.346;2023-03-16T08:30:49;8.20;;;2.03;;
25409;SDS011;13339;50.840;4.346;2023-03-16T08:33:17;9.13;;;2.30;;
25409;SDS011;13339;50.840;4.346;2023-03-16T08:35:45;8.83;;;2.17;;
25409;SDS011;13339;50.840;4.346;2023-03-16T08:38:12;7.67;;;2.20;;
25409;SDS011;13339;50.840;4.346;2023-03-16T08:40:40;5.43;;;2.00;;
25409;SDS011;13339;50.840;4.346;2023-03-16T08:43:16;4.50;;;2.00;;
25409;SDS011;13339;50.840;4.346;2023-03-16T08:45:46;4.87;;;2.23;;
25409;SDS011;13339;50.840;4.346;2023-03-16T08:48:13;6.00;;;2.03;;
25409;SDS011;13339;50.840;4.346;2023-03-16T08:50:41;7.03;;;2.27;;
25409;SDS011;13339;50.840;4.346;2023-03-16T08:53:08;3.27;;;1.93;;
25409;SDS011;13339;50.840;4.346;2023-03-16T08:55:34;6.47;;;2.13;;
25409;SDS011;13339;50.840;4.346;2023-03-16T08:58:00;8.33;;;2.17;;
25409;SDS011;13339;50.840;4.346;2023-03-16T09:00:26;7.87;;;2.33;;
25409;SDS011;13339;50.840;4.346;2023-03-16T09:02:54;7.17;;;1.87;;
25409;SDS011;13339;50.840;4.346;2023-03-16T09:05:20;4.53;;;2.27;;
25409;SDS011;13339;50.840;4.346;2023-03-16T09:07:47;4.73;;;1.90;;
25409;SDS011;13339;50.840;4.346;2023-03-16T09:10:13;4.37;;;2.10;;
25409;SDS011;13339;50.840;4.346;2023-03-16T09:12:40;6.87;;;1.97;;
25409;SDS011;13339;50.840;4.346;2023-03-16T09:15:07;5.00;;;2.07;;
25409;SDS011;13339;50.840;4.346;2023-03-16T09:17:34;5.73;;;1.90;;
25409;SDS011;13339;50.840;4.346;2023-03-16T09:20:00;3.67;;;1.90;;
25409;SDS011;13339;50.840;4.346;2023-03-16T09:22:29;6.73;;;1.87;;
25409;SDS011;13339;50.840;4.346;2023-03-16T09:24:55;3.13;;;1.67;;
25409;SDS011;13339;50.840;4.346;2023-03-16T09:27:21;3.77;;;1.87;;
25409;SDS011;13339;50.840;4.346;2023-03-16T09:29:47;3.80;;;2.00;;
25409;SDS011;13339;50.840;4.346;2023-03-16T09:32:13;7.00;;;2.23;;
25409;SDS011;13339;50.840;4.346;2023-03-16T09:34:39;7.77;;;1.73;;
25409;SDS011;13339;50.840;4.346;2023-03-16T09:37:05;12.37;;;2.73;;
25409;SDS011;13339;50.840;4.346;2023-03-16T09:39:30;3.67;;;1.73;;
25409;SDS011;13339;50.840;4.346;2023-03-16T09:47:09;5.83;;;1.80;;
25409;SDS011;13339;50.840;4.346;2023-03-16T09:49:46;3.97;;;2.07;;
25409;SDS011;13339;50.840;4.346;2023-03-16T09:54:45;2.17;;;1.50;;
25409;SDS011;13339;50.840;4.346;2023-03-16T09:57:38;5.00;;;1.77;;
25409;SDS011;13339;50.840;4.346;2023-03-16T10:00:13;4.60;;;2.00;;
25409;SDS011;13339;50.840;4.346;2023-03-16T10:05:33;3.50;;;1.73;;
25409;SDS011;13339;50.840;4.346;2023-03-16T10:13:50;2.67;;;1.70;;
25409;SDS011;13339;50.840;4.346;2023-03-16T10:16:33;2.83;;;1.47;;
25409;SDS011;13339;50.840;4.346;2023-03-16T10:22:12;4.10;;;1.63;;
25409;SDS011;13339;50.840;4.346;2023-03-16T10:24:47;6.53;;;1.40;;
25409;SDS011;13339;50.840;4.346;2023-03-16T10:27:37;3.90;;;2.00;;
25409;SDS011;13339;50.840;4.346;2023-03-16T10:38:39;1.80;;;1.20;;
25409;SDS011;13339;50.840;4.346;2023-03-16T10:41:05;4.67;;;1.63;;
25409;SDS011;13339;50.840;4.346;2023-03-16T10:43:42;11.47;;;1.83;;
25409;SDS011;13339;50.840;4.346;2023-03-16T10:46:39;4.30;;;1.60;;
25409;SDS011;13339;50.840;4.346;2023-03-16T10:51:46;2.57;;;1.50;;
25409;SDS011;13339;50.840;4.346;2023-03-16T10:54:26;6.43;;;1.83;;
25409;SDS011;13339;50.840;4.346;2023-03-16T10:56:53;4.00;;;1.80;;
25409;SDS011;13339;50.840;4.346;2023-03-16T11:01:57;2.83;;;1.30;;
25409;SDS011;13339;50.840;4.346;2023-03-16T11:04:23;1.33;;;1.00;;
25409;SDS011;13339;50.840;4.346;2023-03-16T11:06:55;2.03;;;1.40;;
25409;SDS011;13339;50.840;4.346;2023-03-16T11:09:32;2.80;;;1.20;;
25409;SDS011;13339;50.840;4.346;2023-03-16T11:11:59;2.77;;;1.40;;
25409;SDS011;13339;50.840;4.346;2023-03-16T11:14:36;4.07;;;1.27;;
25409;SDS011;13339;50.840;4.346;2023-03-16T11:17:06;2.43;;;1.00;;
25409;SDS011;13339;50.840;4.346;2023-03-16T11:19:49;2.97;;;1.20;;
25409;SDS011;13339;50.840;4.346;2023-03-16T11:22:19;2.73;;;1.00;;
25409;SDS011;13339;50.840;4.346;2023-03-16T11:27:36;2.67;;;1.13;;
25409;SDS011;13339;50.840;4.346;2023-03-16T11:30:25;3.20;;;1.30;;
25409;SDS011;13339;50.840;4.346;2023-03-16T11:32:55;3.87;;;1.40;;
25409;SDS011;13339;50.840;4.346;2023-03-16T11:38:02;6.23;;;1.50;;
25409;SDS011;13339;50.840;4.346;2023-03-16T11:51:57;1.77;;;1.20;;
25409;SDS011;13339;50.840;4.346;2023-03-16T12:02:53;9.03;;;1.50;;
25409;SDS011;13339;50.840;4.346;2023-03-16T12:05:34;12.07;;;1.53;;
25409;SDS011;13339;50.840;4.346;2023-03-16T12:08:52;5.40;;;1.57;;
25409;SDS011;13339;50.840;4.346;2023-03-16T12:11:13;6.10;;;1.63;;
25409;SDS011;13339;50.840;4.346;2023-03-16T12:13:50;4.43;;;1.57;;
25409;SDS011;13339;50.840;4.346;2023-03-16T12:16:46;3.17;;;1.50;;
25409;SDS011;13339;50.840;4.346;2023-03-16T12:19:38;3.47;;;1.70;;
25409;SDS011;13339;50.840;4.346;2023-03-16T12:22:12;5.43;;;1.53;;
25409;SDS011;13339;50.840;4.346;2023-03-16T12:24:52;10.13;;;2.23;;
25409;SDS011;13339;50.840;4.346;2023-03-16T12:27:19;2.47;;;1.40;;
25409;SDS011;13339;50.840;4.346;2023-03-16T12:29:57;3.47;;;1.57;;
25409;SDS011;13339;50.840;4.346;2023-03-16T12:38:20;3.90;;;1.50;;
25409;SDS011;13339;50.840;4.346;2023-03-16T12:46:40;3.20;;;1.27;;
25409;SDS011;13339;50.840;4.346;2023-03-16T12:49:17;1.90;;;1.20;;
25409;SDS011;13339;50.840;4.346;2023-03-16T12:51:45;5.50;;;1.50;;
25409;SDS011;13339;50.840;4.346;2023-03-16T12:54:20;4.13;;;1.63;;
25409;SDS011;13339;50.840;4.346;2023-03-16T12:56:47;8.53;;;1.90;;
25409;SDS011;13339;50.840;4.346;2023-03-16T12:59:21;10.57;;;2.10;;
25409;SDS011;13339;50.840;4.346;2023-03-16T13:01:49;4.93;;;1.30;;
25409;SDS011;13339;50.840;4.346;2023-03-16T13:04:18;4.63;;;2.03;;
25409;SDS011;13339;50.840;4.346;2023-03-16T13:06:48;6.33;;;1.57;;
25409;SDS011;13339;50.840;4.346;2023-03-16T13:09:21;2.93;;;1.43;;
25409;SDS011;13339;50.840;4.346;2023-03-16T13:11:50;4.40;;;1.37;;
25409;SDS011;13339;50.840;4.346;2023-03-16T13:19:57;3.67;;;1.37;;
25409;SDS011;13339;50.840;4.346;2023-03-16T13:22:51;1.93;;;1.20;;
25409;SDS011;13339;50.840;4.346;2023-03-16T13:28:00;2.17;;;1.10;;
25409;SDS011;13339;50.840;4.346;2023-03-16T13:30:26;8.90;;;1.40;;
25409;SDS011;13339;50.840;4.346;2023-03-16T13:32:55;3.23;;;1.47;;
25409;SDS011;13339;50.840;4.346;2023-03-16T13:35:26;3.57;;;1.40;;
25409;SDS011;13339;50.840;4.346;2023-03-16T13:37:54;4.03;;;1.30;;
25409;SDS011;13339;50.840;4.346;2023-03-16T13:40:29;1.63;;;1.13;;
25409;SDS011;13339;50.840;4.346;2023-03-16T13:42:56;6.67;;;1.30;;
25409;SDS011;13339;50.840;4.346;2023-03-16T13:45:26;2.63;;;1.20;;
25409;SDS011;13339;50.840;4.346;2023-03-16T13:47:55;6.27;;;1.30;;
25409;SDS011;13339;50.840;4.346;2023-03-16T13:50:22;5.47;;;1.10;;
25409;SDS011;13339;50.840;4.346;2023-03-16T13:52:50;2.43;;;1.20;;
25409;SDS011;13339;50.840;4.346;2023-03-16T13:55:24;2.50;;;1.10;;
25409;SDS011;13339;50.840;4.346;2023-03-16T13:57:54;3.20;;;1.23;;
25409;SDS011;13339;50.840;4.346;2023-03-16T14:00:21;3.00;;;1.30;;
25409;SDS011;13339;50.840;4.346;2023-03-16T14:02:55;1.90;;;1.00;;
25409;SDS011;13339;50.840;4.346;2023-03-16T14:05:30;2.83;;;1.10;;
25409;SDS011;13339;50.840;4.346;2023-03-16T14:07:57;2.77;;;1.20;;
25409;SDS011;13339;50.840;4.346;2023-03-16T14:10:29;2.77;;;1.10;;
25409;SDS011;13339;50.840;4.346;2023-03-16T14:15:49;5.43;;;1.17;;
25409;SDS011;13339;50.840;4.346;2023-03-16T14:18:17;7.87;;;1.60;;
25409;SDS011;13339;50.840;4.346;2023-03-16T14:20:49;5.20;;;1.40;;
25409;SDS011;13339;50.840;4.346;2023-03-16T14:23:17;7.33;;;1.63;;
25409;SDS011;13339;50.840;4.346;2023-03-16T14:25:52;8.13;;;1.20;;
25409;SDS011;13339;50.840;4.346;2023-03-16T14:28:20;1.77;;;1.03;;
25409;SDS011;13339;50.840;4.346;2023-03-16T14:30:52;3.67;;;1.17;;
25409;SDS011;13339;50.840;4.346;2023-03-16T14:33:24;5.20;;;1.43;;
25409;SDS011;13339;50.840;4.346;2023-03-16T14:35:56;2.97;;;1.23;;
25409;SDS011;13339;50.840;4.346;2023-03-16T14:38:30;4.00;;;1.53;;
25409;SDS011;13339;50.840;4.346;2023-03-16T14:41:03;7.70;;;1.70;;
25409;SDS011;13339;50.840;4.346;2023-03-16T14:43:33;2.23;;;1.23;;
25409;SDS011;13339;50.840;4.346;2023-03-16T14:46:03;1.80;;;1.17;;
25409;SDS011;13339;50.840;4.346;2023-03-16T14:48:31;5.50;;;1.30;;
25409;SDS011;13339;50.840;4.346;2023-03-16T14:50:58;4.63;;;1.47;;
25409;SDS011;13339;50.840;4.346;2023-03-16T14:53:26;4.07;;;1.40;;
25409;SDS011;13339;50.840;4.346;2023-03-16T14:55:53;5.77;;;1.60;;
25409;SDS011;13339;50.840;4.346;2023-03-16T14:58:23;4.73;;;1.30;;
25409;SDS011;13339;50.840;4.346;2023-03-16T15:00:49;6.00;;;1.43;;
25409;SDS011;13339;50.840;4.346;2023-03-16T15:03:19;3.80;;;1.70;;
25409;SDS011;13339;50.840;4.346;2023-03-16T15:05:48;4.57;;;1.40;;
25409;SDS011;13339;50.840;4.346;2023-03-16T15:08:21;3.53;;;1.47;;
25409;SDS011;13339;50.840;4.346;2023-03-16T15:10:51;4.53;;;1.10;;
25409;SDS011;13339;50.840;4.346;2023-03-16T15:13:19;3.27;;;1.40;;
25409;SDS011;13339;50.840;4.346;2023-03-16T15:16:02;4.23;;;1.27;;
25409;SDS011;13339;50.840;4.346;2023-03-16T15:18:29;3.10;;;1.47;;
25409;SDS011;13339;50.840;4.346;2023-03-16T15:20:58;3.53;;;1.40;;
25409;SDS011;13339;50.840;4.346;2023-03-16T15:23:26;4.97;;;1.47;;
25409;SDS011;13339;50.840;4.346;2023-03-16T15:25:53;3.20;;;1.40;;
25409;SDS011;13339;50.840;4.346;2023-03-16T15:28:24;2.03;;;1.30;;
25409;SDS011;13339;50.840;4.346;2023-03-16T15:30:55;3.70;;;1.20;;
25409;SDS011;13339;50.840;4.346;2023-03-16T15:33:22;2.93;;;1.30;;
25409;SDS011;13339;50.840;4.346;2023-03-16T15:35:49;3.33;;;1.10;;
25409;SDS011;13339;50.840;4.346;2023-03-16T15:38:19;4.83;;;0.97;;
25409;SDS011;13339;50.840;4.346;2023-03-16T15:40:55;1.60;;;0.83;;
25409;SDS011;13339;50.840;4.346;2023-03-16T15:43:21;1.87;;;1.00;;
25409;SDS011;13339;50.840;4.346;2023-03-16T15:45:48;1.30;;;0.97;;
25409;SDS011;13339;50.840;4.346;2023-03-16T15:48:16;1.63;;;1.00;;
25409;SDS011;13339;50.840;4.346;2023-03-16T15:50:46;2.90;;;1.00;;
25409;SDS011;13339;50.840;4.346;2023-03-16T15:53:32;3.37;;;1.20;;
25409;SDS011;13339;50.840;4.346;2023-03-16T15:56:03;4.77;;;1.00;;
25409;SDS011;13339;50.840;4.346;2023-03-16T15:58:31;1.97;;;1.23;;
25409;SDS011;13339;50.840;4.346;2023-03-16T16:00:59;2.97;;;1.00;;
25409;SDS011;13339;50.840;4.346;2023-03-16T16:03:25;2.80;;;1.23;;
25409;SDS011;13339;50.840;4.346;2023-03-16T16:05:51;2.80;;;1.17;;
25409;SDS011;13339;50.840;4.346;2023-03-16T16:08:18;2.50;;;1.50;;
25409;SDS011;13339;50.840;4.346;2023-03-16T16:10:44;3.17;;;1.60;;
25409;SDS011;13339;50.840;4.346;2023-03-16T16:13:16;2.80;;;1.40;;
25409;SDS011;13339;50.840;4.346;2023-03-16T16:15:51;3.97;;;1.47;;
25409;SDS011;13339;50.840;4.346;2023-03-16T16:18:28;7.40;;;1.60;;
25409;SDS011;13339;50.840;4.346;2023-03-16T16:21:02;3.33;;;1.63;;
25409;SDS011;13339;50.840;4.346;2023-03-16T16:23:29;5.77;;;1.43;;
25409;SDS011;13339;50.840;4.346;2023-03-16T16:25:57;4.37;;;1.57;;